createdAt,value
2018-09-26T00:00:02.481Z,63.43
2018-09-26T00:02:35.094Z,63.79
2018-09-26T00:05:04.231Z,64.01
2018-09-26T00:07:34.075Z,63.73
2018-09-26T00:10:03.093Z,64.40
2018-09-26T00:12:32.063Z,64.28
2018-09-26T00:15:01.024Z,64.88
2018-09-26T00:17:30.382Z,64.13
2018-09-26T00:19:59.916Z,64.46
2018-09-26T00:22:30.089Z,64.38
2018-09-26T00:24:59.567Z,64.98
2018-09-26T00:27:29.082Z,64.14
2018-09-26T00:29:58.651Z,64.67
2018-09-26T00:32:28.465Z,64.20
2018-09-26T00:34:58.164Z,64.90
2018-09-26T00:37:27.463Z,64.38
2018-09-26T00:39:56.180Z,65.17
2018-09-26T00:42:25.028Z,64.33
2018-09-26T00:44:54.167Z,64.52
2018-09-26T00:47:22.979Z,64.36
2018-09-26T00:49:52.005Z,64.39
2018-09-26T00:52:20.855Z,64.73
2018-09-26T00:54:49.929Z,64.42
2018-09-26T00:57:20.470Z,64.81
2018-09-26T00:59:50.533Z,64.64
2018-09-26T01:02:20.284Z,64.98
2018-09-26T01:04:50.493Z,64.56
2018-09-26T01:07:19.915Z,65.53
2018-09-26T01:09:49.933Z,65.07
2018-09-26T01:12:19.746Z,65.85
2018-09-26T01:14:48.710Z,65.74
2018-09-26T01:17:18.458Z,65.69
2018-09-26T01:19:47.761Z,66.01
2018-09-26T01:22:17.554Z,65.93
2018-09-26T01:24:47.171Z,66.17
2018-09-26T01:27:15.940Z,66.20
2018-09-26T01:29:44.679Z,66.69
2018-09-26T01:32:13.554Z,66.85
2018-09-26T01:34:42.902Z,67.25
2018-09-26T01:37:11.957Z,66.87
2018-09-26T01:39:41.322Z,67.30
2018-09-26T01:42:10.149Z,66.60
2018-09-26T01:44:39.229Z,67.70
2018-09-26T01:47:08.033Z,67.07
2018-09-26T01:49:37.110Z,67.51
2018-09-26T01:52:05.886Z,67.31
2018-09-26T01:54:34.578Z,68.16
2018-09-26T01:57:03.884Z,67.85
2018-09-26T01:59:33.223Z,68.31
2018-09-26T02:02:02.365Z,68.40
2018-09-26T02:04:32.379Z,68.60
2018-09-26T02:07:01.746Z,68.65
2018-09-26T02:09:30.492Z,67.48
2018-09-26T02:11:59.661Z,67.68
2018-09-26T02:14:28.433Z,67.77
2018-09-26T02:16:57.222Z,68.81
2018-09-26T02:19:26.025Z,68.08
2018-09-26T02:21:54.800Z,68.25
2018-09-26T02:24:23.797Z,68.75
2018-09-26T02:26:53.515Z,68.70
2018-09-26T02:29:23.234Z,68.71
2018-09-26T02:31:52.923Z,69.05
2018-09-26T02:34:23.348Z,68.76
2018-09-26T02:36:53.278Z,68.76
2018-09-26T02:39:23.119Z,68.96
2018-09-26T02:41:52.171Z,69.23
2018-09-26T02:44:20.941Z,68.80
2018-09-26T02:46:51.694Z,69.13
2018-09-26T02:49:21.510Z,69.77
2018-09-26T02:51:50.306Z,69.06
2018-09-26T02:54:19.274Z,69.54
2018-09-26T02:56:48.499Z,69.42
2018-09-26T02:59:17.395Z,69.58
2018-09-26T03:01:46.176Z,69.44
2018-09-26T03:04:15.070Z,69.26
2018-09-26T03:06:43.851Z,69.75
2018-09-26T03:09:12.970Z,69.60
2018-09-26T03:11:41.843Z,70.35
2018-09-26T03:14:10.638Z,70.06
2018-09-26T03:16:39.627Z,70.09
2018-09-26T03:19:09.378Z,70.58
2018-09-26T03:21:38.895Z,71.27
2018-09-26T03:24:08.729Z,71.16
2018-09-26T03:26:38.177Z,70.89
2018-09-26T03:29:08.480Z,70.89
2018-09-26T03:31:37.607Z,71.15
2018-09-26T03:34:07.163Z,71.18
2018-09-26T03:36:36.907Z,70.45
2018-09-26T03:39:08.200Z,70.44
2018-09-26T03:41:38.367Z,70.87
2018-09-26T03:44:07.565Z,70.07
2018-09-26T03:46:36.938Z,70.77
2018-09-26T03:49:06.687Z,70.15
2018-09-26T03:51:36.465Z,70.19
2018-09-26T03:54:05.691Z,70.35
2018-09-26T03:56:36.121Z,70.24
2018-09-26T03:59:05.388Z,70.14
2018-09-26T04:01:35.735Z,70.20
2018-09-26T04:04:05.902Z,70.26
2018-09-26T04:06:35.175Z,70.63
2018-09-26T04:09:04.717Z,70.85
2018-09-26T04:11:33.856Z,70.79
2018-09-26T04:14:03.777Z,71.06
2018-09-26T04:16:32.663Z,71.88
2018-09-26T04:19:01.538Z,72.18
2018-09-26T04:21:34.510Z,72.10
2018-09-26T04:24:03.603Z,73.00
2018-09-26T04:26:32.666Z,72.37
2018-09-26T04:29:01.812Z,72.76
2018-09-26T04:31:31.502Z,72.33
2018-09-26T04:34:01.687Z,72.17
2018-09-26T04:36:31.226Z,72.72
2018-09-26T04:39:00.780Z,72.21
2018-09-26T04:41:30.804Z,72.41
2018-09-26T04:44:00.702Z,72.25
2018-09-26T04:46:30.428Z,72.19
2018-09-26T04:49:00.825Z,72.30
2018-09-26T04:51:30.597Z,72.77
2018-09-26T04:54:00.060Z,72.25
2018-09-26T04:56:29.217Z,72.43
2018-09-26T04:58:58.287Z,72.55
2018-09-26T05:01:27.489Z,72.84
2018-09-26T05:03:56.336Z,72.71
2018-09-26T05:06:25.337Z,72.32
2018-09-26T05:08:54.118Z,72.86
2018-09-26T05:11:23.139Z,72.02
2018-09-26T05:13:52.102Z,72.59
2018-09-26T05:16:24.359Z,72.46
2018-09-26T05:19:01.133Z,72.22
2018-09-26T05:21:35.353Z,72.76
2018-09-26T05:24:04.710Z,72.36
2018-09-26T05:26:33.767Z,72.89
2018-09-26T05:29:02.664Z,72.66
2018-09-26T05:31:31.909Z,73.00
2018-09-26T05:34:01.303Z,73.29
2018-09-26T05:36:30.180Z,73.55
2018-09-26T05:38:59.306Z,73.30
2018-09-26T05:41:28.112Z,72.66
2018-09-26T05:43:57.308Z,72.96
2018-09-26T05:46:26.226Z,72.48
2018-09-26T05:48:55.585Z,72.68
2018-09-26T05:51:25.800Z,72.40
2018-09-26T05:53:54.619Z,71.74
2018-09-26T05:56:23.610Z,72.22
2018-09-26T05:58:52.780Z,71.48
2018-09-26T06:01:22.829Z,70.93
2018-09-26T06:03:51.559Z,71.00
2018-09-26T06:06:20.523Z,71.12
2018-09-26T06:08:49.638Z,70.19
2018-09-26T06:11:18.659Z,69.85
2018-09-26T06:13:47.782Z,70.14
2018-09-26T06:16:16.550Z,69.75
2018-09-26T06:18:45.579Z,70.54
2018-09-26T06:21:14.701Z,69.98
2018-09-26T06:23:43.487Z,69.68
2018-09-26T06:26:12.280Z,69.95
2018-09-26T06:28:41.046Z,68.97
2018-09-26T06:31:09.829Z,69.20
2018-09-26T06:33:39.529Z,68.47
2018-09-26T06:36:08.732Z,69.09
2018-09-26T06:38:37.507Z,68.71
2018-09-26T06:41:06.354Z,68.48
2018-09-26T06:43:35.208Z,68.22
2018-09-26T06:46:06.167Z,68.18
2018-09-26T06:48:36.896Z,67.59
2018-09-26T06:51:05.804Z,67.45
2018-09-26T06:53:34.916Z,66.97
2018-09-26T06:56:04.291Z,66.98
2018-09-26T06:58:33.225Z,65.87
2018-09-26T07:01:02.648Z,65.51
2018-09-26T07:03:31.582Z,65.14
2018-09-26T07:06:00.402Z,65.50
2018-09-26T07:08:29.878Z,64.65
2018-09-26T07:10:59.183Z,64.98
2018-09-26T07:13:28.314Z,64.40
2018-09-26T07:15:57.111Z,63.96
2018-09-26T07:18:25.910Z,63.41
2018-09-26T07:20:54.718Z,63.01
2018-09-26T07:23:23.533Z,63.37
2018-09-26T07:25:52.318Z,62.54
2018-09-26T07:28:21.212Z,62.68
2018-09-26T07:30:50.616Z,63.05
2018-09-26T07:33:21.848Z,63.10
2018-09-26T07:35:51.469Z,63.03
2018-09-26T07:38:21.279Z,62.29
2018-09-26T07:40:51.227Z,62.59
2018-09-26T07:43:20.487Z,62.47
2018-09-26T07:45:49.896Z,60.96
2018-09-26T07:48:18.850Z,60.29
2018-09-26T07:50:47.748Z,60.91
2018-09-26T07:53:17.068Z,59.92
2018-09-26T07:55:45.892Z,59.64
2018-09-26T07:58:14.956Z,59.31
2018-09-26T08:00:44.444Z,58.37
2018-09-26T08:03:13.193Z,57.60
2018-09-26T08:05:42.354Z,57.21
2018-09-26T08:08:11.264Z,56.19
2018-09-26T08:10:46.405Z,56.34
2018-09-26T08:13:15.176Z,56.80
2018-09-26T08:15:43.983Z,56.63
2018-09-26T08:18:13.126Z,56.37
2018-09-26T08:20:42.256Z,56.85
2018-09-26T08:23:11.353Z,56.17
2018-09-26T08:25:40.418Z,55.97
2018-09-26T08:28:09.434Z,55.54
2018-09-26T08:30:38.517Z,54.25
2018-09-26T08:33:07.371Z,54.59
2018-09-26T08:35:36.116Z,54.30
2018-09-26T08:38:05.213Z,53.38
2018-09-26T08:40:33.937Z,52.71
2018-09-26T08:43:03.030Z,51.42
2018-09-26T08:45:32.143Z,50.12
2018-09-26T08:48:00.869Z,49.55
2018-09-26T08:50:30.075Z,49.97
2018-09-26T08:52:58.819Z,49.73
2018-09-26T08:55:27.651Z,49.94
2018-09-26T08:57:56.766Z,50.14
2018-09-26T09:00:30.552Z,50.77
2018-09-26T09:02:59.281Z,49.88
2018-09-26T09:05:28.746Z,49.56
2018-09-26T09:07:57.586Z,49.96
2018-09-26T09:10:26.476Z,49.75
2018-09-26T09:12:55.392Z,50.40
2018-09-26T09:15:24.573Z,49.77
2018-09-26T09:17:53.685Z,49.63
2018-09-26T09:20:22.786Z,49.56
2018-09-26T09:22:51.571Z,49.16
2018-09-26T09:25:20.412Z,49.03
2018-09-26T09:27:49.280Z,47.86
2018-09-26T09:30:18.371Z,46.80
2018-09-26T09:32:47.301Z,46.69
2018-09-26T09:35:16.590Z,45.59
2018-09-26T09:37:45.354Z,46.29
2018-09-26T09:40:14.366Z,44.31
2018-09-26T09:42:43.666Z,44.48
2018-09-26T09:45:12.479Z,44.63
2018-09-26T09:47:41.500Z,43.73
2018-09-26T09:50:10.272Z,43.50
2018-09-26T09:52:39.288Z,43.65
2018-09-26T09:55:08.204Z,43.50
2018-09-26T09:57:37.059Z,43.33
2018-09-26T10:00:05.924Z,42.92
2018-09-26T10:02:34.908Z,42.24
2018-09-26T10:05:03.636Z,43.50
2018-09-26T10:07:33.222Z,43.79
2018-09-26T10:10:01.953Z,43.23
2018-09-26T10:12:30.955Z,42.89
2018-09-26T10:14:59.850Z,42.67
2018-09-26T10:17:29.291Z,40.99
2018-09-26T10:19:58.085Z,39.86
2018-09-26T10:22:27.470Z,39.48
2018-09-26T10:24:57.423Z,37.75
2018-09-26T10:27:26.068Z,38.34
2018-09-26T10:29:54.833Z,38.15
2018-09-26T10:32:23.702Z,37.76
2018-09-26T10:34:52.467Z,38.01
2018-09-26T10:37:21.303Z,37.38
2018-09-26T10:39:50.069Z,37.31
2018-09-26T10:42:18.929Z,38.36
2018-09-26T10:44:48.020Z,37.99
2018-09-26T10:47:17.398Z,38.53
2018-09-26T10:49:46.754Z,37.89
2018-09-26T10:52:15.879Z,38.15
2018-09-26T10:54:45.385Z,38.10
2018-09-26T10:57:14.462Z,39.03
2018-09-26T10:59:43.278Z,39.32
2018-09-26T11:02:12.179Z,39.26
2018-09-26T11:04:40.949Z,38.69
2018-09-26T11:07:10.175Z,39.21
2018-09-26T11:09:39.323Z,38.84
2018-09-26T11:12:08.486Z,38.06
2018-09-26T11:14:37.330Z,38.26
2018-09-26T11:17:06.478Z,38.11
2018-09-26T11:19:35.370Z,38.33
2018-09-26T11:22:04.775Z,37.90
2018-09-26T11:24:33.889Z,37.52
2018-09-26T11:27:02.919Z,37.65
2018-09-26T11:29:31.883Z,36.75
2018-09-26T11:32:00.714Z,36.21
2018-09-26T11:34:29.461Z,36.07
2018-09-26T11:36:58.689Z,36.56
2018-09-26T11:39:27.482Z,36.30
2018-09-26T11:41:56.319Z,35.73
2018-09-26T11:44:25.779Z,36.38
2018-09-26T11:46:55.674Z,35.28
2018-09-26T11:49:25.949Z,35.14
2018-09-26T11:51:54.849Z,34.93
2018-09-26T11:54:24.220Z,35.41
2018-09-26T11:56:53.189Z,33.70
2018-09-26T11:59:22.050Z,33.83
2018-09-26T12:01:50.991Z,32.85
2018-09-26T12:04:20.553Z,31.25
2018-09-26T12:06:49.312Z,30.54
2018-09-26T12:09:18.264Z,30.67
2018-09-26T12:11:47.286Z,29.61
2018-09-26T12:14:16.124Z,30.72
2018-09-26T12:16:44.955Z,31.46
2018-09-26T12:19:14.351Z,32.43
2018-09-26T12:21:43.153Z,33.49
2018-09-26T12:24:12.334Z,34.06
2018-09-26T12:26:41.197Z,34.38
2018-09-26T12:29:10.078Z,34.21
2018-09-26T12:31:39.156Z,34.87
2018-09-26T12:34:08.226Z,34.79
2018-09-26T12:36:36.991Z,34.91
2018-09-26T12:39:08.944Z,34.72
2018-09-26T12:41:37.771Z,35.08
2018-09-26T12:44:07.557Z,35.23
2018-09-26T12:46:36.324Z,35.99
2018-09-26T12:49:05.224Z,35.74
2018-09-26T12:51:34.695Z,36.23
2018-09-26T12:54:03.541Z,36.33
2018-09-26T12:56:32.516Z,35.82
2018-09-26T12:59:03.044Z,35.96
2018-09-26T13:01:31.988Z,35.95
2018-09-26T13:04:00.866Z,36.08
2018-09-26T13:06:29.796Z,35.85
2018-09-26T13:08:58.712Z,35.67
2018-09-26T13:11:28.110Z,34.92
2018-09-26T13:13:57.072Z,35.39
2018-09-26T13:16:26.408Z,35.49
2018-09-26T13:18:55.372Z,35.40
2018-09-26T13:21:24.556Z,35.99
2018-09-26T13:23:53.379Z,35.47
2018-09-26T13:26:22.352Z,36.54
2018-09-26T13:28:51.311Z,36.22
2018-09-26T13:31:20.330Z,36.72
2018-09-26T13:33:49.153Z,36.39
2018-09-26T13:36:18.070Z,35.76
2018-09-26T13:38:46.911Z,35.68
2018-09-26T13:41:16.103Z,36.08
2018-09-26T13:43:44.970Z,36.45
2018-09-26T13:46:13.962Z,36.57
2018-09-26T13:48:43.160Z,36.41
2018-09-26T13:51:11.898Z,36.68
2018-09-26T13:53:40.888Z,37.20
2018-09-26T13:56:09.725Z,37.25
2018-09-26T13:58:38.901Z,37.72
2018-09-26T14:01:08.301Z,37.46
2018-09-26T14:03:37.394Z,37.69
2018-09-26T14:06:06.819Z,36.97
2018-09-26T14:08:35.785Z,37.69
2018-09-26T14:11:04.526Z,37.61
2018-09-26T14:13:33.465Z,37.61
2018-09-26T14:16:02.361Z,38.53
2018-09-26T14:18:31.949Z,38.51
2018-09-26T14:21:01.241Z,37.79
2018-09-26T14:23:30.537Z,37.75
2018-09-26T14:25:59.677Z,37.50
2018-09-26T14:28:28.973Z,37.97
2018-09-26T14:30:57.874Z,37.82
2018-09-26T14:33:26.824Z,37.00
2018-09-26T14:35:56.459Z,37.25
2018-09-26T14:38:25.506Z,37.24
2018-09-26T14:40:54.433Z,36.93
2018-09-26T14:43:23.509Z,36.98
2018-09-26T14:45:52.356Z,36.58
2018-09-26T14:48:22.330Z,35.62
2018-09-26T14:50:51.168Z,35.85
2018-09-26T14:53:20.299Z,36.76
2018-09-26T14:55:49.332Z,36.54
2018-09-26T14:58:18.257Z,36.45
2018-09-26T15:00:47.524Z,35.37
2018-09-26T15:03:17.940Z,35.36
2018-09-26T15:05:47.035Z,34.51
2018-09-26T15:08:16.897Z,34.89
2018-09-26T15:10:46.784Z,34.79
2018-09-26T15:13:15.955Z,34.26
2018-09-26T15:15:45.075Z,33.85
2018-09-26T15:18:13.897Z,33.76
2018-09-26T15:20:42.684Z,33.04
2018-09-26T15:23:11.529Z,33.41
2018-09-26T15:25:40.628Z,33.41
2018-09-26T15:28:09.846Z,32.70
2018-09-26T15:30:38.649Z,33.45
2018-09-26T15:33:07.738Z,33.92
2018-09-26T15:35:36.590Z,33.49
2018-09-26T15:38:05.511Z,33.81
2018-09-26T15:40:34.740Z,34.01
2018-09-26T15:43:03.571Z,34.16
2018-09-26T15:45:32.528Z,33.81
2018-09-26T15:48:01.366Z,34.49
2018-09-26T15:50:30.144Z,34.05
2018-09-26T15:52:59.370Z,34.24
2018-09-26T15:55:28.193Z,34.63
2018-09-26T15:57:57.281Z,35.13
2018-09-26T16:00:26.282Z,35.31
2018-09-26T16:02:54.997Z,35.04
2018-09-26T16:05:24.175Z,35.64
2018-09-26T16:07:53.585Z,35.48
2018-09-26T16:10:22.415Z,36.00
2018-09-26T16:12:52.267Z,35.32
2018-09-26T16:15:21.098Z,35.01
2018-09-26T16:17:50.025Z,35.38
2018-09-26T16:20:19.767Z,35.99
2018-09-26T16:22:49.076Z,35.57
2018-09-26T16:25:18.178Z,35.81
2018-09-26T16:27:47.022Z,36.08
2018-09-26T16:30:15.752Z,36.51
2018-09-26T16:32:44.824Z,36.02
2018-09-26T16:35:13.985Z,36.00
2018-09-26T16:37:43.245Z,35.74
2018-09-26T16:40:12.569Z,35.70
2018-09-26T16:42:41.482Z,35.90
2018-09-26T16:45:10.893Z,35.64
2018-09-26T16:47:40.472Z,36.05
2018-09-26T16:50:09.798Z,35.98
2018-09-26T16:52:38.619Z,36.65
2018-09-26T16:55:07.552Z,36.12
2018-09-26T16:57:37.042Z,36.10
2018-09-26T17:00:06.025Z,36.79
2018-09-26T17:02:34.829Z,36.49
2018-09-26T17:05:03.901Z,37.04
2018-09-26T17:07:32.731Z,36.87
2018-09-26T17:10:01.525Z,36.62
2018-09-26T17:12:30.306Z,37.23
2018-09-26T17:14:59.509Z,37.03
2018-09-26T17:17:28.376Z,37.19
2018-09-26T17:19:57.192Z,37.56
2018-09-26T17:22:26.089Z,38.15
2018-09-26T17:24:55.053Z,37.48
2018-09-26T17:27:24.168Z,38.23
2018-09-26T17:29:52.974Z,37.57
2018-09-26T17:32:22.279Z,37.73
2018-09-26T17:34:51.407Z,38.06
2018-09-26T17:37:20.450Z,38.12
2018-09-26T17:39:49.279Z,38.42
2018-09-26T17:42:18.405Z,38.15
2018-09-26T17:44:47.371Z,38.36
2018-09-26T17:47:16.243Z,38.53
2018-09-26T17:49:45.328Z,38.92
2018-09-26T17:52:14.335Z,38.28
2018-09-26T17:54:43.488Z,38.42
2018-09-26T17:57:12.363Z,39.17
2018-09-26T17:59:41.801Z,38.28
2018-09-26T18:02:11.134Z,38.29
2018-09-26T18:04:40.320Z,38.71
2018-09-26T18:07:09.643Z,38.62
2018-09-26T18:09:38.457Z,38.25
2018-09-26T18:12:06.874Z,38.36
2018-09-26T18:14:36.194Z,38.20
2018-09-26T18:17:05.516Z,38.96
2018-09-26T18:19:34.509Z,38.82
2018-09-26T18:22:03.768Z,38.28
2018-09-26T18:24:32.973Z,38.58
2018-09-26T18:27:01.893Z,39.01
2018-09-26T18:29:30.696Z,38.99
2018-09-26T18:31:59.643Z,38.59
2018-09-26T18:34:28.523Z,39.06
2018-09-26T18:36:58.180Z,39.34
2018-09-26T18:39:27.067Z,38.66
2018-09-26T18:41:56.067Z,38.59
2018-09-26T18:44:25.020Z,39.27
2018-09-26T18:46:54.014Z,39.27
2018-09-26T18:49:22.839Z,38.63
2018-09-26T18:51:52.123Z,38.68
2018-09-26T18:54:20.969Z,38.40
2018-09-26T18:56:49.928Z,39.25
2018-09-26T18:59:19.063Z,39.12
2018-09-26T19:01:48.075Z,38.70
2018-09-26T19:04:17.223Z,38.73
2018-09-26T19:06:46.399Z,38.61
2018-09-26T19:09:15.780Z,39.35
2018-09-26T19:11:44.894Z,38.77
2018-09-26T19:14:13.809Z,39.36
2018-09-26T19:16:43.160Z,38.79
2018-09-26T19:19:12.304Z,38.90
2018-09-26T19:21:41.042Z,39.22
2018-09-26T19:24:10.432Z,39.32
2018-09-26T19:26:39.264Z,38.85
2018-09-26T19:29:08.059Z,39.35
2018-09-26T19:31:36.887Z,39.20
2018-09-26T19:34:06.334Z,39.11
2018-09-26T19:36:36.027Z,38.98
2018-09-26T19:39:07.399Z,39.07
2018-09-26T19:41:36.606Z,39.13
2018-09-26T19:44:05.566Z,39.29
2018-09-26T19:46:34.588Z,39.57
2018-09-26T19:49:03.998Z,39.21
2018-09-26T19:51:33.010Z,39.34
2018-09-26T19:54:02.235Z,38.82
2018-09-26T19:56:31.485Z,39.18
2018-09-26T19:59:06.988Z,39.55
2018-09-26T20:01:36.818Z,39.63
2018-09-26T20:04:05.959Z,39.44
2018-09-26T20:06:35.091Z,39.55
2018-09-26T20:09:04.139Z,39.82
2018-09-26T20:11:33.175Z,40.04
2018-09-26T20:14:02.170Z,39.89
2018-09-26T20:16:31.078Z,40.32
2018-09-26T20:18:59.927Z,40.33
2018-09-26T20:21:28.738Z,40.25
2018-09-26T20:23:57.962Z,40.65
2018-09-26T20:26:26.987Z,40.73
2018-09-26T20:28:56.124Z,40.28
2018-09-26T20:31:25.291Z,40.87
2018-09-26T20:33:54.400Z,40.23
2018-09-26T20:36:23.333Z,40.91
2018-09-26T20:38:52.710Z,40.89
2018-09-26T20:41:22.080Z,40.95
2018-09-26T20:43:51.193Z,41.02
2018-09-26T20:46:20.133Z,41.05
2018-09-26T20:48:49.018Z,40.79
2018-09-26T20:51:17.990Z,41.14
2018-09-26T20:53:47.181Z,40.94
2018-09-26T20:56:16.181Z,41.23
2018-09-26T20:58:45.232Z,41.10
2018-09-26T21:01:14.186Z,41.68
2018-09-26T21:03:43.126Z,41.56
2018-09-26T21:06:12.142Z,41.49
2018-09-26T21:08:41.198Z,41.43
2018-09-26T21:11:11.300Z,41.40
2018-09-26T21:13:40.632Z,41.89
2018-09-26T21:16:09.571Z,41.50
2018-09-26T21:18:38.691Z,41.92
2018-09-26T21:21:07.801Z,41.36
2018-09-26T21:23:37.067Z,42.03
2018-09-26T21:26:06.283Z,41.44
2018-09-26T21:28:35.035Z,42.13
2018-09-26T21:31:04.049Z,42.22
2018-09-26T21:33:32.849Z,42.12
2018-09-26T21:36:02.460Z,42.45
2018-09-26T21:38:31.757Z,42.55
2018-09-26T21:41:01.245Z,42.52
2018-09-26T21:43:30.502Z,42.82
2018-09-26T21:45:59.467Z,42.42
2018-09-26T21:48:28.675Z,42.74
2018-09-26T21:50:57.622Z,42.74
2018-09-26T21:53:26.756Z,42.13
2018-09-26T21:55:55.629Z,42.65
2018-09-26T21:58:24.522Z,42.87
2018-09-26T22:00:58.669Z,42.68
2018-09-26T22:03:27.867Z,42.75
2018-09-26T22:05:57.014Z,43.31
2018-09-26T22:08:25.891Z,42.72
2018-09-26T22:10:55.464Z,42.39
2018-09-26T22:13:24.804Z,42.59
2018-09-26T22:15:53.746Z,42.51
2018-09-26T22:18:22.544Z,42.61
2018-09-26T22:20:51.298Z,43.07
2018-09-26T22:23:20.108Z,43.21
2018-09-26T22:25:48.877Z,42.58
2018-09-26T22:28:17.673Z,42.56
2018-09-26T22:30:46.492Z,42.82
2018-09-26T22:33:15.552Z,42.48
2018-09-26T22:35:44.661Z,42.38
2018-09-26T22:38:13.705Z,43.30
2018-09-26T22:40:42.432Z,43.81
2018-09-26T22:43:11.220Z,42.95
2018-09-26T22:45:40.322Z,43.27
2018-09-26T22:48:09.247Z,42.93
2018-09-26T22:50:38.309Z,42.84
2018-09-26T22:53:07.582Z,43.39
2018-09-26T22:55:36.909Z,43.44
2018-09-26T22:58:06.216Z,43.17
2018-09-26T23:00:35.618Z,43.87
2018-09-26T23:03:05.752Z,43.43
2018-09-26T23:05:34.598Z,43.39
2018-09-26T23:08:03.403Z,44.14
2018-09-26T23:10:32.714Z,44.29
2018-09-26T23:13:01.505Z,44.41
2018-09-26T23:15:30.249Z,44.75
2018-09-26T23:17:59.402Z,44.92
2018-09-26T23:20:29.187Z,45.38
2018-09-26T23:22:58.157Z,45.29
2018-09-26T23:25:26.870Z,45.65
2018-09-26T23:27:55.880Z,45.17
2018-09-26T23:30:24.598Z,45.19
2018-09-26T23:32:53.319Z,45.42
2018-09-26T23:35:22.069Z,46.08
2018-09-26T23:37:51.011Z,45.99
2018-09-26T23:40:19.762Z,45.84
2018-09-26T23:42:48.534Z,46.46
2018-09-26T23:45:18.020Z,46.54
2018-09-26T23:47:47.647Z,46.23
2018-09-26T23:50:16.763Z,46.42
2018-09-26T23:52:45.467Z,46.31
2018-09-26T23:55:14.511Z,47.10
2018-09-26T23:57:43.446Z,47.21
